Time;durP1;ratioP1;P1;durP2;ratioP2;P2;SDS_P1;SDS_P2;PMS_P1;PMS_P2;Temp;Humidity;BMP_temperature;BMP_pressure;BME280_temperature;BME280_humidity;BME280_pressure;Samples;Min_cycle;Max_cycle;Signal;HPM_P1;HPM_P2
2021/06/24 00:00:46;;;;;;;;;;;14.80;87.20;;;;;;5058755;28;20024;-66
2021/06/24 00:03:12;;;;;;;;;;;14.70;87.20;;;;;;5054787;28;20008;-67
2021/06/24 00:05:38;;;;;;;;;;;14.80;87.50;;;;;;5036772;28;20002;-66
2021/06/24 00:08:04;;;;;;;;;;;14.80;87.40;;;;;;5057919;28;20551;-66
2021/06/24 00:10:29;;;;;;;;;;;14.80;87.40;;;;;;5036175;28;19971;-67
2021/06/24 00:12:55;;;;;;;;;;;14.70;87.80;;;;;;5059187;28;19912;-67
2021/06/24 00:15:20;;;;;;;;;;;14.70;87.60;;;;;;5057715;28;19919;-67
2021/06/24 00:17:46;;;;;;;;;;;14.70;87.90;;;;;;5039257;28;19912;-66
2021/06/24 00:20:12;;;;;;;;;;;14.70;87.70;;;;;;5048727;28;20062;-67
2021/06/24 00:22:37;;;;;;;;;;;14.70;87.70;;;;;;5054655;28;20007;-67
2021/06/24 00:25:03;;;;;;;;;;;14.60;87.60;;;;;;5060558;28;19916;-67
2021/06/24 00:27:28;;;;;;;;;;;14.70;87.80;;;;;;5052889;28;20091;-66
2021/06/24 00:29:54;;;;;;;;;;;14.70;87.60;;;;;;5055302;28;20229;-66
2021/06/24 00:32:19;;;;;;;;;;;14.70;87.40;;;;;;5054450;28;19931;-67
2021/06/24 00:34:45;;;;;;;;;;;14.70;87.40;;;;;;5057533;28;19913;-67
2021/06/24 00:37:10;;;;;;;;;;;14.70;87.50;;;;;;5060376;28;19916;-66
2021/06/24 00:39:36;;;;;;;;;;;14.60;87.50;;;;;;5052584;28;19916;-67
2021/06/24 00:42:01;;;;;;;;;;;14.60;87.70;;;;;;5060154;28;20364;-67
2021/06/24 00:44:27;;;;;;;;;;;14.60;87.80;;;;;;5056614;28;19962;-66
2021/06/24 00:46:53;;;;;;;;;;;14.60;87.80;;;;;;5058952;28;19913;-67
2021/06/24 00:49:19;;;;;;;;;;;14.60;87.80;;;;;;5057411;28;19921;-67
2021/06/24 00:51:45;;;;;;;;;;;14.50;87.70;;;;;;5055134;28;20339;-66
2021/06/24 00:54:10;;;;;;;;;;;14.50;87.80;;;;;;5051586;28;20108;-66
2021/06/24 00:56:36;;;;;;;;;;;14.60;87.90;;;;;;5056980;28;20019;-66
2021/06/24 00:59:03;;;;;;;;;;;14.60;87.80;;;;;;5055628;28;19930;-67
2021/06/24 01:01:29;;;;;;;;;;;14.60;88.10;;;;;;5060175;28;19913;-67
2021/06/24 01:03:55;;;;;;;;;;;14.60;88.30;;;;;;5060926;28;19927;-67
2021/06/24 01:06:21;;;;;;;;;;;14.70;88.10;;;;;;5063397;28;19916;-67
2021/06/24 01:08:46;;;;;;;;;;;14.70;87.80;;;;;;5057001;28;19928;-67
2021/06/24 01:11:12;;;;;;;;;;;14.70;88.20;;;;;;5057883;28;19912;-67
2021/06/24 01:13:38;;;;;;;;;;;14.70;88.10;;;;;;5058229;28;19916;-67
2021/06/24 01:16:04;;;;;;;;;;;14.60;88.00;;;;;;5059036;28;19925;-66
2021/06/24 01:18:29;;;;;;;;;;;14.60;88.40;;;;;;5062611;28;20002;-66
2021/06/24 01:20:55;;;;;;;;;;;14.60;88.20;;;;;;5042268;28;20008;-67
2021/06/24 01:23:21;;;;;;;;;;;14.70;88.30;;;;;;5060551;28;19916;-67
2021/06/24 01:25:46;;;;;;;;;;;14.60;88.30;;;;;;5055386;28;20025;-66
2021/06/24 01:28:12;;;;;;;;;;;14.50;88.10;;;;;;5053751;28;20369;-66
2021/06/24 01:30:39;;;;;;;;;;;14.60;88.20;;;;;;5055599;28;19931;-67
2021/06/24 01:33:05;;;;;;;;;;;14.50;88.40;;;;;;5062398;28;19916;-66
2021/06/24 01:35:31;;;;;;;;;;;14.50;88.20;;;;;;5061993;28;19999;-66
2021/06/24 01:37:57;;;;;;;;;;;14.60;88.10;;;;;;5061880;28;20007;-67
2021/06/24 01:40:23;;;;;;;;;;;14.60;88.40;;;;;;5063224;28;19951;-67
2021/06/24 01:42:48;;;;;;;;;;;14.60;88.30;;;;;;5061416;28;20459;-66
2021/06/24 01:45:14;;;;;;;;;;;14.60;88.50;;;;;;5061753;28;20301;-65
2021/06/24 01:47:39;;;;;;;;;;;14.50;88.60;;;;;;5059646;28;19916;-67
2021/06/24 01:50:08;;;;;;;;;;;14.50;88.80;;;;;;5052402;28;19939;-67
2021/06/24 01:52:34;;;;;;;;;;;14.50;88.60;;;;;;5062807;28;19916;-66
2021/06/24 01:54:59;;;;;;;;;;;14.60;89.00;;;;;;5052132;28;20791;-66
2021/06/24 01:57:25;;;;;;;;;;;14.60;88.70;;;;;;5059987;28;19927;-67
2021/06/24 01:59:50;;;;;;;;;;;14.50;88.40;;;;;;5061595;28;19928;-67
2021/06/24 02:02:16;;;;;;;;;;;14.50;88.70;;;;;;5055540;28;20368;-67
2021/06/24 02:04:41;;;;;;;;;;;14.50;88.80;;;;;;5055887;28;19921;-67
2021/06/24 02:07:07;;;;;;;;;;;14.50;88.90;;;;;;5055649;28;20369;-67
2021/06/24 02:09:32;;;;;;;;;;;14.50;89.10;;;;;;5058126;28;20030;-66
2021/06/24 02:11:58;;;;;;;;;;;14.50;89.10;;;;;;5049638;28;19923;-68
2021/06/24 02:14:24;;;;;;;;;;;14.50;88.80;;;;;;5061590;28;20423;-67
2021/06/24 02:16:50;;;;;;;;;;;14.40;89.00;;;;;;5061060;28;20035;-66
2021/06/24 02:19:15;;;;;;;;;;;14.40;89.00;;;;;;5062125;28;20019;-67
2021/06/24 02:21:41;;;;;;;;;;;14.40;89.40;;;;;;5052567;28;19983;-66
2021/06/24 02:24:06;;;;;;;;;;;14.40;89.40;;;;;;5055476;28;19920;-66
2021/06/24 02:26:32;;;;;;;;;;;14.40;89.40;;;;;;5039296;28;19917;-66
2021/06/24 02:28:57;;;;;;;;;;;14.40;89.70;;;;;;5060646;28;19926;-67
2021/06/24 02:31:24;;;;;;;;;;;14.30;89.70;;;;;;5047780;28;19917;-67
2021/06/24 02:33:49;;;;;;;;;;;14.40;89.60;;;;;;5047565;28;20450;-67
2021/06/24 02:36:15;;;;;;;;;;;14.40;89.60;;;;;;5053555;28;19917;-66
2021/06/24 02:38:41;;;;;;;;;;;14.30;89.70;;;;;;5056841;28;19975;-67
2021/06/24 02:41:06;;;;;;;;;;;14.30;89.80;;;;;;5062605;28;20576;-66
2021/06/24 02:43:31;;;;;;;;;;;14.30;89.80;;;;;;5062140;28;19912;-66
2021/06/24 02:45:57;;;;;;;;;;;14.30;89.90;;;;;;5056338;28;20496;-67
2021/06/24 02:48:22;;;;;;;;;;;14.40;90.00;;;;;;5053063;28;19931;-67
2021/06/24 02:50:48;;;;;;;;;;;14.30;89.90;;;;;;5060829;28;19920;-66
2021/06/24 02:53:13;;;;;;;;;;;14.30;89.90;;;;;;5058743;28;20316;-67
2021/06/24 02:55:41;;;;;;;;;;;14.30;90.00;;;;;;5064702;28;19991;-66
2021/06/24 02:58:06;;;;;;;;;;;14.30;90.00;;;;;;5062794;28;20375;-66
2021/06/24 03:00:32;;;;;;;;;;;14.30;90.10;;;;;;5066543;28;19963;-66
2021/06/24 03:02:57;;;;;;;;;;;14.30;89.90;;;;;;5038246;28;19913;-66
2021/06/24 03:05:23;;;;;;;;;;;14.20;90.00;;;;;;5066788;28;19909;-66
2021/06/24 03:07:49;;;;;;;;;;;14.20;90.00;;;;;;5065891;28;19922;-66
2021/06/24 03:10:15;;;;;;;;;;;14.20;90.00;;;;;;5032198;28;19916;-66
2021/06/24 03:12:40;;;;;;;;;;;14.10;90.10;;;;;;5056247;28;19924;-66
2021/06/24 03:15:07;;;;;;;;;;;14.10;90.20;;;;;;5052917;28;19917;-66
2021/06/24 03:17:35;;;;;;;;;;;14.20;90.30;;;;;;5066008;28;19924;-66
2021/06/24 03:20:00;;;;;;;;;;;14.10;90.40;;;;;;5063881;28;19920;-66
2021/06/24 03:22:26;;;;;;;;;;;14.10;90.50;;;;;;5055577;28;20061;-66
2021/06/24 03:24:51;;;;;;;;;;;14.10;90.60;;;;;;5057244;28;19931;-66
2021/06/24 03:27:17;;;;;;;;;;;14.00;90.50;;;;;;5063113;28;19939;-66
2021/06/24 03:29:42;;;;;;;;;;;13.90;90.90;;;;;;5053993;28;19912;-66
2021/06/24 03:32:08;;;;;;;;;;;13.80;91.10;;;;;;5063685;28;20019;-66
2021/06/24 03:34:33;;;;;;;;;;;13.70;91.60;;;;;;5066043;28;20006;-65
2021/06/24 03:36:59;;;;;;;;;;;13.70;91.60;;;;;;5043418;28;19923;-66
2021/06/24 03:39:24;;;;;;;;;;;13.60;91.80;;;;;;5051296;28;19916;-67
2021/06/24 03:41:50;;;;;;;;;;;13.60;91.70;;;;;;5056658;28;20245;-66
2021/06/24 03:44:16;;;;;;;;;;;13.50;92.30;;;;;;5051367;28;19995;-66
2021/06/24 03:46:41;;;;;;;;;;;13.50;92.30;;;;;;5061914;28;19996;-66
2021/06/24 03:49:07;;;;;;;;;;;13.60;92.80;;;;;;5062294;28;20016;-66
2021/06/24 03:51:32;;;;;;;;;;;13.60;92.70;;;;;;5064857;28;19928;-66
2021/06/24 03:53:58;;;;;;;;;;;13.70;92.70;;;;;;5063682;28;19940;-66
2021/06/24 03:56:23;;;;;;;;;;;13.80;92.10;;;;;;5064435;28;20006;-66
2021/06/24 03:58:49;;;;;;;;;;;14.00;92.40;;;;;;5059559;28;19921;-66
2021/06/24 04:01:14;;;;;;;;;;;14.00;92.00;;;;;;5058080;28;19913;-66
2021/06/24 04:03:40;;;;;;;;;;;14.10;91.70;;;;;;5064342;28;20023;-66
2021/06/24 04:06:06;;;;;;;;;;;14.20;91.60;;;;;;5063543;28;20486;-65
2021/06/24 04:08:32;;;;;;;;;;;14.30;91.50;;;;;;5057890;28;19951;-66
2021/06/24 04:10:58;;;;;;;;;;;14.30;91.40;;;;;;5063440;28;19952;-66
2021/06/24 04:13:24;;;;;;;;;;;14.40;91.30;;;;;;5063107;28;20022;-66
2021/06/24 04:15:49;;;;;;;;;;;14.50;91.40;;;;;;5065252;28;20310;-66
2021/06/24 04:18:15;;;;;;;;;;;14.50;90.90;;;;;;5040841;28;20315;-67
2021/06/24 04:20:40;;;;;;;;;;;14.50;91.00;;;;;;5048221;28;20313;-67
2021/06/24 04:23:06;;;;;;;;;;;14.50;90.70;;;;;;5055749;28;19913;-66
2021/06/24 04:25:33;;;;;;;;;;;14.60;90.90;;;;;;5062049;28;19912;-67
2021/06/24 04:28:00;;;;;;;;;;;14.50;90.50;;;;;;5059835;28;19924;-67
2021/06/24 04:30:27;;;;;;;;;;;14.60;90.90;;;;;;5050477;28;19924;-66
2021/06/24 04:32:53;;;;;;;;;;;14.60;90.50;;;;;;5063258;28;20196;-67
2021/06/24 04:35:18;;;;;;;;;;;14.70;90.50;;;;;;5062019;28;20159;-67
2021/06/24 04:37:44;;;;;;;;;;;14.70;90.30;;;;;;5060151;28;19920;-67
2021/06/24 04:40:10;;;;;;;;;;;14.80;90.10;;;;;;5053208;28;19920;-67
2021/06/24 04:42:36;;;;;;;;;;;14.90;90.30;;;;;;5060333;28;19973;-66
2021/06/24 04:45:02;;;;;;;;;;;15.00;90.60;;;;;;5052216;28;20293;-67
2021/06/24 04:47:27;;;;;;;;;;;15.00;90.30;;;;;;5063806;28;19957;-67
2021/06/24 04:49:53;;;;;;;;;;;15.00;89.60;;;;;;5055472;28;20019;-67
2021/06/24 04:52:18;;;;;;;;;;;15.10;89.50;;;;;;5061529;28;19920;-67
2021/06/24 04:54:44;;;;;;;;;;;15.10;89.60;;;;;;5062208;28;19931;-67
2021/06/24 04:57:10;;;;;;;;;;;15.20;89.40;;;;;;5056736;28;19912;-67
2021/06/24 04:59:35;;;;;;;;;;;15.30;89.30;;;;;;5052273;28;19916;-66
2021/06/24 05:02:01;;;;;;;;;;;15.30;89.20;;;;;;5060669;28;19912;-68
2021/06/24 05:04:26;;;;;;;;;;;15.30;88.90;;;;;;5059415;28;20062;-67
2021/06/24 05:06:54;;;;;;;;;;;15.40;89.10;;;;;;5059894;28;19945;-66
2021/06/24 05:09:27;;;;;;;;;;;15.40;88.70;;;;;;5062674;28;20146;-67
2021/06/24 05:11:53;;;;;;;;;;;15.50;88.10;;;;;;5059975;28;20003;-67
2021/06/24 05:14:19;;;;;;;;;;;15.50;87.90;;;;;;5062554;28;20091;-67
2021/06/24 05:16:44;;;;;;;;;;;15.70;88.10;;;;;;5055112;28;20023;-67
2021/06/24 05:19:10;;;;;;;;;;;15.70;87.60;;;;;;5055512;28;19917;-67
2021/06/24 05:21:35;;;;;;;;;;;15.70;87.40;;;;;;5055616;28;20310;-67
2021/06/24 05:24:01;;;;;;;;;;;15.80;87.60;;;;;;5047885;28;19919;-67
2021/06/24 05:26:26;;;;;;;;;;;15.80;87.00;;;;;;5032631;28;20020;-66
2021/06/24 05:28:52;;;;;;;;;;;15.90;87.50;;;;;;5057354;28;19966;-67
2021/06/24 05:31:17;;;;;;;;;;;15.90;86.70;;;;;;5059815;28;20008;-67
2021/06/24 05:33:43;;;;;;;;;;;16.00;86.90;;;;;;5061768;28;20287;-66
2021/06/24 05:36:08;;;;;;;;;;;16.00;86.40;;;;;;5056168;28;19927;-67
2021/06/24 05:38:34;;;;;;;;;;;15.90;85.90;;;;;;5062763;28;20301;-67
2021/06/24 05:40:59;;;;;;;;;;;16.00;85.50;;;;;;5062915;28;20114;-68
2021/06/24 05:43:25;;;;;;;;;;;16.00;86.00;;;;;;5041345;28;20000;-67
2021/06/24 05:45:51;;;;;;;;;;;16.10;86.30;;;;;;5058873;28;19919;-67
2021/06/24 05:48:16;;;;;;;;;;;16.10;85.90;;;;;;5059354;28;19973;-67
2021/06/24 05:50:42;;;;;;;;;;;16.20;85.40;;;;;;5062556;28;19928;-67
2021/06/24 05:53:07;;;;;;;;;;;16.10;85.20;;;;;;5053247;28;19924;-66
2021/06/24 05:55:51;;;;;;;;;;;16.10;85.50;;;;;;5062135;28;20393;-66
2021/06/24 05:58:18;;;;;;;;;;;16.10;85.40;;;;;;5062265;28;20023;-67
2021/06/24 06:00:44;;;;;;;;;;;16.30;86.20;;;;;;5058476;28;19920;-67
2021/06/24 06:03:10;;;;;;;;;;;16.20;85.90;;;;;;5057330;28;20057;-68
2021/06/24 06:05:36;;;;;;;;;;;16.00;84.90;;;;;;5062810;28;20321;-68
2021/06/24 06:08:03;;;;;;;;;;;16.10;85.70;;;;;;5061003;28;20015;-66
2021/06/24 06:10:29;;;;;;;;;;;16.10;85.30;;;;;;5051108;28;19916;-67
2021/06/24 06:12:54;;;;;;;;;;;16.20;85.80;;;;;;5056628;28;20062;-67
2021/06/24 06:15:20;;;;;;;;;;;16.30;85.30;;;;;;5059595;28;19935;-67
2021/06/24 06:17:45;;;;;;;;;;;16.40;85.10;;;;;;5050623;28;19999;-67
2021/06/24 06:20:11;;;;;;;;;;;16.40;84.30;;;;;;5050853;28;20288;-67
2021/06/24 06:22:37;;;;;;;;;;;16.40;83.50;;;;;;5059318;28;20026;-68
2021/06/24 06:25:02;;;;;;;;;;;16.50;83.80;;;;;;5063074;28;19951;-67
2021/06/24 06:27:28;;;;;;;;;;;16.50;84.10;;;;;;5050472;28;19988;-67
2021/06/24 06:29:54;;;;;;;;;;;16.40;82.40;;;;;;5062703;28;19916;-68
2021/06/24 06:32:19;;;;;;;;;;;16.50;83.30;;;;;;5055706;28;19916;-67
2021/06/24 06:34:45;;;;;;;;;;;16.60;81.70;;;;;;5065796;28;20358;-67
2021/06/24 06:37:10;;;;;;;;;;;16.70;82.40;;;;;;5033158;28;19928;-67
2021/06/24 06:39:36;;;;;;;;;;;16.70;81.50;;;;;;5064122;28;20012;-68
2021/06/24 06:42:01;;;;;;;;;;;16.80;81.90;;;;;;5066891;28;19912;-68
2021/06/24 06:44:27;;;;;;;;;;;17.00;81.30;;;;;;5066425;28;20337;-68
2021/06/24 06:46:52;;;;;;;;;;;17.00;81.00;;;;;;5063621;28;19913;-69
2021/06/24 06:49:18;;;;;;;;;;;17.20;81.40;;;;;;5058844;28;19917;-68
2021/06/24 06:51:44;;;;;;;;;;;17.40;79.70;;;;;;5048599;28;20011;-68
2021/06/24 06:54:09;;;;;;;;;;;17.40;77.80;;;;;;5063484;28;19908;-67
2021/06/24 06:56:35;;;;;;;;;;;17.50;78.60;;;;;;5065437;28;19992;-69
2021/06/24 06:59:01;;;;;;;;;;;17.90;78.70;;;;;;5044493;28;19916;-69
2021/06/24 07:01:27;;;;;;;;;;;18.00;79.10;;;;;;5054138;28;19956;-68
2021/06/24 07:03:52;;;;;;;;;;;18.00;75.60;;;;;;5065215;28;19943;-68
2021/06/24 07:06:18;;;;;;;;;;;18.30;77.10;;;;;;5066476;28;19916;-69
2021/06/24 07:08:43;;;;;;;;;;;18.50;73.70;;;;;;5064719;28;20357;-68
2021/06/24 07:11:09;;;;;;;;;;;18.60;73.50;;;;;;5048810;28;19971;-68
2021/06/24 07:13:35;;;;;;;;;;;18.60;74.80;;;;;;5060261;28;19939;-69
2021/06/24 07:16:01;;;;;;;;;;;18.50;72.60;;;;;;5065585;28;19920;-69
2021/06/24 07:18:26;;;;;;;;;;;18.60;73.10;;;;;;5064540;28;19966;-68
2021/06/24 07:20:52;;;;;;;;;;;18.70;73.70;;;;;;5058606;28;19920;-69
2021/06/24 07:23:17;;;;;;;;;;;18.70;69.30;;;;;;5063082;28;20316;-68
2021/06/24 07:25:43;;;;;;;;;;;18.90;69.00;;;;;;5053730;28;20330;-69
2021/06/24 07:28:08;;;;;;;;;;;18.80;67.50;;;;;;5051948;28;20197;-68
2021/06/24 07:30:34;;;;;;;;;;;19.10;66.10;;;;;;5055903;28;19927;-68
2021/06/24 07:33:00;;;;;;;;;;;19.10;68.20;;;;;;5063900;28;19912;-68
2021/06/24 07:35:25;;;;;;;;;;;19.00;67.50;;;;;;5065471;28;19940;-68
2021/06/24 07:37:51;;;;;;;;;;;19.10;66.50;;;;;;5065148;28;19912;-68
2021/06/24 07:40:16;;;;;;;;;;;19.10;67.80;;;;;;5064871;28;19916;-67
2021/06/24 07:42:42;;;;;;;;;;;19.30;66.90;;;;;;5063960;28;20008;-68
2021/06/24 07:45:08;;;;;;;;;;;19.10;67.40;;;;;;5059013;28;19913;-68
2021/06/24 07:47:33;;;;;;;;;;;19.30;66.00;;;;;;5064032;28;20004;-68
2021/06/24 07:49:59;;;;;;;;;;;19.40;65.60;;;;;;5064418;28;20265;-68
2021/06/24 07:52:24;;;;;;;;;;;19.60;66.30;;;;;;5062088;28;20007;-68
2021/06/24 07:54:50;;;;;;;;;;;19.90;65.00;;;;;;5063434;28;19933;-68
2021/06/24 07:57:15;;;;;;;;;;;20.20;65.80;;;;;;5060639;28;20481;-68
2021/06/24 07:59:41;;;;;;;;;;;20.00;63.90;;;;;;5060846;28;19932;-67
2021/06/24 08:02:06;;;;;;;;;;;20.10;67.40;;;;;;5065076;28;19913;-68
2021/06/24 08:04:33;;;;;;;;;;;20.10;67.30;;;;;;5054141;28;19913;-68
2021/06/24 08:06:58;;;;;;;;;;;20.00;66.60;;;;;;5038369;28;19936;-68
2021/06/24 08:09:24;;;;;;;;;;;19.90;65.70;;;;;;5063186;28;19928;-68
2021/06/24 08:11:49;;;;;;;;;;;20.00;64.40;;;;;;5055393;28;19928;-68
2021/06/24 08:14:15;;;;;;;;;;;20.00;65.80;;;;;;5054600;28;19919;-68
2021/06/24 08:16:40;;;;;;;;;;;19.80;64.60;;;;;;5062092;28;20357;-68
2021/06/24 08:19:06;;;;;;;;;;;20.00;65.60;;;;;;5064160;28;20014;-68
2021/06/24 08:21:32;;;;;;;;;;;20.30;65.10;;;;;;5062298;28;19925;-68
2021/06/24 08:23:57;;;;;;;;;;;20.30;65.70;;;;;;5056975;28;20503;-68
2021/06/24 08:26:24;;;;;;;;;;;20.20;66.20;;;;;;5056421;28;20181;-69
2021/06/24 08:28:49;;;;;;;;;;;20.20;63.90;;;;;;5063416;28;19963;-67
2021/06/24 08:31:15;;;;;;;;;;;20.10;64.60;;;;;;5058204;28;19951;-68
2021/06/24 08:33:40;;;;;;;;;;;20.30;65.50;;;;;;5059472;28;21249;-68
2021/06/24 08:36:06;;;;;;;;;;;20.10;66.00;;;;;;5057248;28;19908;-68
2021/06/24 08:38:32;;;;;;;;;;;20.70;64.90;;;;;;5059798;28;19916;-68
2021/06/24 08:40:58;;;;;;;;;;;20.70;64.60;;;;;;5062062;28;19951;-68
2021/06/24 08:43:23;;;;;;;;;;;20.40;62.50;;;;;;5052057;28;19924;-69
2021/06/24 08:45:50;;;;;;;;;;;20.30;62.70;;;;;;5062473;28;20294;-68
2021/06/24 08:48:16;;;;;;;;;;;20.70;64.30;;;;;;5061307;28;20324;-69
2021/06/24 08:50:46;;;;;;;;;;;20.90;62.10;;;;;;5058316;28;19943;-68
2021/06/24 08:53:12;;;;;;;;;;;21.10;63.90;;;;;;5053268;28;19913;-67
2021/06/24 08:55:41;;;;;;;;;;;20.70;61.30;;;;;;5060559;28;19921;-68
2021/06/24 08:58:07;;;;;;;;;;;20.50;60.70;;;;;;5057683;28;19912;-68
2021/06/24 09:00:33;;;;;;;;;;;20.60;62.40;;;;;;5052851;28;20406;-68
2021/06/24 09:03:12;;;;;;;;;;;20.50;63.00;;;;;;5052400;28;19992;-68
2021/06/24 09:05:51;;;;;;;;;;;20.50;63.00;;;;;;5063811;28;20237;-67
2021/06/24 09:08:36;;;;;;;;;;;20.70;64.30;;;;;;5052701;28;19920;-68
2021/06/24 09:11:09;;;;;;;;;;;20.50;64.30;;;;;;5054414;28;19913;-68
2021/06/24 09:13:34;;;;;;;;;;;21.00;62.90;;;;;;5054349;28;19916;-68
2021/06/24 09:16:04;;;;;;;;;;;21.00;61.50;;;;;;5058760;28;20349;-67
2021/06/24 09:18:29;;;;;;;;;;;20.70;62.80;;;;;;5056338;28;19954;-67
2021/06/24 09:20:55;;;;;;;;;;;21.00;63.80;;;;;;5037845;28;19929;-68
2021/06/24 09:23:24;;;;;;;;;;;21.10;63.00;;;;;;5061844;28;19982;-68
2021/06/24 09:26:19;;;;;;;;;;;20.90;61.30;;;;;;5059171;28;20379;-68
2021/06/24 09:28:50;;;;;;;;;;;20.90;60.90;;;;;;5021381;28;19920;-67
2021/06/24 09:31:22;;;;;;;;;;;20.60;62.30;;;;;;5050001;28;19981;-69
2021/06/24 09:33:48;;;;;;;;;;;20.50;61.90;;;;;;5063223;28;19913;-68
2021/06/24 09:36:29;;;;;;;;;;;20.70;63.60;;;;;;5058465;28;20360;-68
2021/06/24 09:38:55;;;;;;;;;;;20.60;62.50;;;;;;5033876;28;20395;-68
2021/06/24 09:41:20;;;;;;;;;;;20.60;63.10;;;;;;5058803;28;19924;-68
2021/06/24 09:43:47;;;;;;;;;;;21.00;62.80;;;;;;5058743;28;20288;-68
2021/06/24 09:46:19;;;;;;;;;;;21.00;63.10;;;;;;5049722;28;19988;-68
2021/06/24 09:48:46;;;;;;;;;;;20.90;61.20;;;;;;5052711;28;19913;-66
2021/06/24 09:51:21;;;;;;;;;;;20.90;61.50;;;;;;5062747;28;20169;-68
2021/06/24 09:53:47;;;;;;;;;;;20.50;63.80;;;;;;5045532;28;19966;-68
2021/06/24 09:56:18;;;;;;;;;;;20.20;63.50;;;;;;5057924;28;19912;-69
2021/06/24 09:58:47;;;;;;;;;;;20.30;63.10;;;;;;5060776;28;20057;-68
2021/06/24 10:01:24;;;;;;;;;;;20.30;64.70;;;;;;5061308;28;20057;-68
2021/06/24 10:03:50;;;;;;;;;;;20.30;63.80;;;;;;5051946;28;19924;-69
2021/06/24 10:06:15;;;;;;;;;;;20.40;62.70;;;;;;5059136;28;20305;-67
2021/06/24 10:08:41;;;;;;;;;;;20.60;62.50;;;;;;5058761;28;19941;-68
2021/06/24 10:11:06;;;;;;;;;;;20.30;61.00;;;;;;5043924;28;19908;-68
2021/06/24 10:13:32;;;;;;;;;;;20.30;63.20;;;;;;5060237;28;19921;-67
2021/06/24 10:15:58;;;;;;;;;;;20.00;63.20;;;;;;5053477;28;19912;-68
2021/06/24 10:18:25;;;;;;;;;;;19.70;62.70;;;;;;5054972;28;20325;-68
2021/06/24 10:20:50;;;;;;;;;;;19.80;63.20;;;;;;5061719;28;19920;-68
2021/06/24 10:23:18;;;;;;;;;;;20.10;62.50;;;;;;5052492;28;19939;-68
2021/06/24 10:25:45;;;;;;;;;;;21.00;61.10;;;;;;5057224;28;19917;-68
2021/06/24 10:28:12;;;;;;;;;;;20.90;60.20;;;;;;5058234;28;19912;-67
2021/06/24 10:30:41;;;;;;;;;;;20.90;62.50;;;;;;5060946;28;19959;-67
2021/06/24 10:33:12;;;;;;;;;;;20.90;60.20;;;;;;5059907;28;19927;-68
2021/06/24 10:35:47;;;;;;;;;;;20.50;61.60;;;;;;5060142;28;19924;-67
2021/06/24 10:38:13;;;;;;;;;;;20.40;62.60;;;;;;5059243;28;20026;-67
2021/06/24 10:40:42;;;;;;;;;;;20.50;60.90;;;;;;5052637;28;19928;-68
2021/06/24 10:43:09;;;;;;;;;;;21.00;59.30;;;;;;5060840;28;19924;-69
2021/06/24 10:45:34;;;;;;;;;;;21.00;59.00;;;;;;5057296;28;20281;-68
2021/06/24 10:48:20;;;;;;;;;;;21.00;59.60;;;;;;5061426;28;19921;-68
2021/06/24 10:50:55;;;;;;;;;;;21.20;58.10;;;;;;5049934;28;20299;-68
2021/06/24 10:53:20;;;;;;;;;;;21.40;60.80;;;;;;5057666;28;19938;-68
2021/06/24 10:55:49;;;;;;;;;;;21.90;58.50;;;;;;5056082;28;20441;-68
2021/06/24 10:58:18;;;;;;;;;;;21.30;58.70;;;;;;5058859;28;19924;-67
2021/06/24 11:00:44;;;;;;;;;;;21.70;58.20;;;;;;5043814;28;19937;-68
2021/06/24 11:03:10;;;;;;;;;;;22.00;59.50;;;;;;5056855;28;20014;-67
2021/06/24 11:05:40;;;;;;;;;;;22.50;56.90;;;;;;5054364;28;19978;-68
2021/06/24 11:08:12;;;;;;;;;;;22.70;56.30;;;;;;5054683;28;19968;-67
2021/06/24 11:10:56;;;;;;;;;;;22.20;54.60;;;;;;5049775;28;20018;-68
2021/06/24 11:13:40;;;;;;;;;;;22.30;55.20;;;;;;5055560;28;20055;-67
2021/06/24 11:16:06;;;;;;;;;;;22.30;55.50;;;;;;5052149;28;19913;-67
2021/06/24 11:18:35;;;;;;;;;;;22.40;54.90;;;;;;5056267;28;20341;-69
2021/06/24 11:21:14;;;;;;;;;;;22.00;55.90;;;;;;5060855;28;19936;-68
2021/06/24 11:23:50;;;;;;;;;;;21.90;56.30;;;;;;5058530;28;20281;-69
2021/06/24 11:26:17;;;;;;;;;;;22.00;56.80;;;;;;5056068;28;19913;-69
2021/06/24 11:28:45;;;;;;;;;;;22.30;56.30;;;;;;5062602;28;20548;-68
2021/06/24 11:31:12;;;;;;;;;;;23.00;54.10;;;;;;5058428;28;19912;-69
2021/06/24 11:33:49;;;;;;;;;;;22.70;54.70;;;;;;5056826;28;19912;-69
2021/06/24 11:36:19;;;;;;;;;;;22.40;54.00;;;;;;5052552;28;19917;-68
2021/06/24 11:38:48;;;;;;;;;;;22.50;57.40;;;;;;5050824;28;20044;-68
2021/06/24 11:41:20;;;;;;;;;;;21.90;55.60;;;;;;5057136;28;20365;-68
2021/06/24 11:43:59;;;;;;;;;;;21.70;55.80;;;;;;5061498;28;19913;-69
2021/06/24 11:46:25;;;;;;;;;;;22.20;55.00;;;;;;5062189;28;19927;-69
2021/06/24 11:48:55;;;;;;;;;;;23.00;52.00;;;;;;5058361;28;20031;-68
2021/06/24 12:05:07;;;;;;;;;;;22.70;53.70;;;;;;5060079;28;19920;-69
2021/06/24 12:07:36;;;;;;;;;;;23.30;52.30;;;;;;5059216;28;19976;-69
2021/06/24 12:10:03;;;;;;;;;;;23.20;54.00;;;;;;5059583;28;20000;-69
2021/06/24 12:12:30;;;;;;;;;;;23.10;53.00;;;;;;5056904;28;19990;-68
2021/06/24 12:14:57;;;;;;;;;;;22.70;53.70;;;;;;5058576;28;19924;-69
2021/06/24 12:17:41;;;;;;;;;;;22.50;53.30;;;;;;5060033;28;20004;-68
2021/06/24 12:20:09;;;;;;;;;;;23.00;54.70;;;;;;5030945;28;20011;-68
2021/06/24 12:22:36;;;;;;;;;;;23.30;53.40;;;;;;5060091;28;20110;-68
2021/06/24 12:25:03;;;;;;;;;;;23.70;51.80;;;;;;5057090;28;19912;-69
2021/06/24 12:27:37;;;;;;;;;;;23.30;52.50;;;;;;5050731;28;19988;-68
2021/06/24 12:30:09;;;;;;;;;;;23.00;52.80;;;;;;5058338;28;19985;-69
2021/06/24 12:32:35;;;;;;;;;;;22.70;53.50;;;;;;5054382;28;19999;-69
2021/06/24 12:35:00;;;;;;;;;;;22.70;51.70;;;;;;5053166;28;20031;-68
2021/06/24 12:37:31;;;;;;;;;;;22.50;54.90;;;;;;5055168;28;20015;-69
2021/06/24 12:39:56;;;;;;;;;;;22.40;54.80;;;;;;5057328;28;19916;-68
2021/06/24 12:42:22;;;;;;;;;;;22.00;57.20;;;;;;5052946;28;20357;-69
2021/06/24 12:44:49;;;;;;;;;;;21.70;57.90;;;;;;5057800;28;20006;-68
2021/06/24 12:47:33;;;;;;;;;;;22.10;58.40;;;;;;5056994;28;19927;-68
2021/06/24 12:50:08;;;;;;;;;;;22.10;58.00;;;;;;5055660;28;19970;-68
2021/06/24 12:52:33;;;;;;;;;;;22.00;58.60;;;;;;5052995;28;20002;-69
2021/06/24 12:54:59;;;;;;;;;;;22.50;56.90;;;;;;5051494;28;19995;-68
2021/06/24 12:57:24;;;;;;;;;;;22.40;55.40;;;;;;5054726;28;19912;-69
2021/06/24 12:59:50;;;;;;;;;;;22.10;55.30;;;;;;5053860;28;19920;-68
2021/06/24 13:02:15;;;;;;;;;;;22.20;56.00;;;;;;5055208;28;19916;-68
2021/06/24 13:04:41;;;;;;;;;;;22.00;55.20;;;;;;5050235;28;20240;-68
2021/06/24 13:07:06;;;;;;;;;;;22.00;57.30;;;;;;5060010;28;20184;-68
2021/06/24 13:09:38;;;;;;;;;;;21.60;57.10;;;;;;5057123;28;19935;-68
2021/06/24 13:12:08;;;;;;;;;;;21.70;56.60;;;;;;5055876;28;19912;-68
2021/06/24 13:14:37;;;;;;;;;;;22.00;56.30;;;;;;5054125;28;19916;-68
2021/06/24 13:17:07;;;;;;;;;;;21.90;55.00;;;;;;5058763;28;20289;-68
2021/06/24 13:19:36;;;;;;;;;;;22.50;53.40;;;;;;5053618;28;19938;-69
2021/06/24 13:22:03;;;;;;;;;;;22.80;53.20;;;;;;5060134;28;19912;-69
2021/06/24 13:24:40;;;;;;;;;;;22.90;53.70;;;;;;5059284;28;19928;-69
2021/06/24 13:27:13;;;;;;;;;;;23.80;51.50;;;;;;5046168;28;20227;-69
2021/06/24 13:29:40;;;;;;;;;;;24.30;51.00;;;;;;5054845;28;20349;-69
2021/06/24 13:32:06;;;;;;;;;;;23.70;51.30;;;;;;5055474;28;19913;-68
2021/06/24 13:34:34;;;;;;;;;;;23.10;52.40;;;;;;5061306;28;19995;-68
2021/06/24 13:37:13;;;;;;;;;;;23.50;51.40;;;;;;5053785;28;19944;-70
2021/06/24 13:39:38;;;;;;;;;;;23.30;53.20;;;;;;5058105;28;19943;-69
2021/06/24 13:42:04;;;;;;;;;;;24.00;51.30;;;;;;5054878;28;20350;-68
2021/06/24 13:44:29;;;;;;;;;;;23.70;52.30;;;;;;5053024;28;20349;-69
2021/06/24 13:46:55;;;;;;;;;;;23.50;53.20;;;;;;5057374;28;20476;-68
2021/06/24 13:49:22;;;;;;;;;;;22.50;54.00;;;;;;5054276;28;19958;-69
2021/06/24 13:51:49;;;;;;;;;;;22.10;55.50;;;;;;5057135;28;20035;-68
2021/06/24 13:54:24;;;;;;;;;;;21.80;57.00;;;;;;5054451;28;20004;-69
2021/06/24 13:56:50;;;;;;;;;;;22.00;56.50;;;;;;5056523;28;20369;-69
2021/06/24 13:59:16;;;;;;;;;;;22.20;55.70;;;;;;5053866;28;19986;-68
2021/06/24 14:01:42;;;;;;;;;;;21.70;56.30;;;;;;5054847;28;20381;-69
2021/06/24 14:04:08;;;;;;;;;;;21.60;57.20;;;;;;5054446;28;20007;-68
2021/06/24 14:06:36;;;;;;;;;;;21.70;57.70;;;;;;5055539;28;19920;-69
2021/06/24 14:09:12;;;;;;;;;;;21.70;56.80;;;;;;5058060;28;19924;-67
2021/06/24 14:11:39;;;;;;;;;;;21.50;59.20;;;;;;5050980;28;19916;-68
2021/06/24 14:14:05;;;;;;;;;;;22.00;58.80;;;;;;5055292;28;19935;-68
2021/06/24 14:16:32;;;;;;;;;;;22.00;58.10;;;;;;5051560;28;19916;-68
2021/06/24 14:18:57;;;;;;;;;;;22.10;59.60;;;;;;5056347;28;19920;-69
2021/06/24 14:21:24;;;;;;;;;;;22.00;58.50;;;;;;5056537;28;19920;-68
2021/06/24 14:23:50;;;;;;;;;;;21.90;59.40;;;;;;5053406;28;19924;-69
2021/06/24 14:26:17;;;;;;;;;;;21.50;59.50;;;;;;5060527;28;19920;-68
2021/06/24 14:28:43;;;;;;;;;;;21.50;59.40;;;;;;5027053;28;20006;-66